Time;durP1;ratioP1;P1;durP2;ratioP2;P2;SDS_P1;SDS_P2;PMS_P1;PMS_P2;Temp;Humidity;BMP_temperature;BMP_pressure;BME280_temperature;BME280_humidity;BME280_pressure;Samples;Min_cycle;Max_cycle;Signal;HPM_P1;HPM_P2
2023/10/05 00:02:11;;;;;;;13.90;6.70;;;;;;;12.76;100.00;101858.84;105924;1256;73787;-48
2023/10/05 00:04:45;;;;;;;;;;;;;;;12.79;100.00;101864.20;105914;1256;64645;-49
2023/10/05 00:07:26;;;;;;;15.20;7.40;;;;;;;12.81;100.00;101866.44;105956;1253;72664;-50
2023/10/05 00:09:53;;;;;;;12.00;6.60;;;;;;;12.81;100.00;101864.53;105856;1253;61994;-50
2023/10/05 00:12:22;;;;;;;16.90;7.20;;;;;;;12.84;100.00;101869.88;105722;1251;60444;-52
2023/10/05 00:17:31;;;;;;;14.80;7.00;;;;;;;12.85;100.00;101876.45;105875;1256;64578;-49
2023/10/05 00:19:59;;;;;;;23.40;6.90;;;;;;;12.86;100.00;101871.24;105928;1256;72635;-49
2023/10/05 00:22:26;;;;;;;22.50;7.20;;;;;;;12.86;100.00;101870.22;105916;1253;61990;-49
2023/10/05 00:24:53;;;;;;;20.90;6.90;;;;;;;12.83;100.00;101867.28;105887;1253;60576;-48
2023/10/05 00:27:20;;;;;;;16.80;7.60;;;;;;;12.81;100.00;101863.15;105885;1254;73792;-49
2023/10/05 00:29:54;;;;;;;15.70;7.10;;;;;;;12.77;100.00;101865.94;105908;1256;63381;-47
2023/10/05 00:32:39;;;;;;;13.50;7.30;;;;;;;12.74;100.00;101863.00;105926;1253;72531;-49
2023/10/05 00:35:26;;;;;;;25.20;7.60;;;;;;;12.72;100.00;101857.98;105925;1253;61940;-50
2023/10/05 00:38:16;;;;;;;24.00;7.40;;;;;;;12.66;100.00;101845.90;105922;1256;60362;-48
2023/10/05 00:40:47;;;;;;;20.40;7.20;;;;;;;12.62;100.00;101842.63;105907;1251;73738;-50
2023/10/05 00:45:48;;;;;;;18.10;6.80;;;;;;;12.57;100.00;101847.85;105896;1253;72700;-50
2023/10/05 00:48:34;;;;;;;19.60;7.10;;;;;;;12.57;100.00;101850.80;105871;1251;61942;-50
2023/10/05 00:51:08;;;;;;;;;;;;;;;12.56;100.00;101846.64;105923;1251;60738;-49
2023/10/05 00:53:36;;;;;;;14.90;6.60;;;;;;;12.56;100.00;101849.07;105915;1256;73646;-50
2023/10/05 00:56:11;;;;;;;14.60;6.20;;;;;;;12.56;100.00;101850.97;105943;1255;64475;-49
2023/10/05 00:58:47;;;;;;;;;;;;;;;12.54;100.00;101857.73;106023;1253;72600;-50
2023/10/05 01:01:22;;;;;;;15.00;7.00;;;;;;;12.52;100.00;101856.02;105978;1255;60429;-50
2023/10/05 01:06:41;;;;;;;15.70;6.00;;;;;;;12.48;100.00;101841.81;105765;1257;73751;-50
2023/10/05 01:09:25;;;;;;;12.80;6.20;;;;;;;12.47;100.00;101832.30;105900;1256;64768;-49
2023/10/05 01:11:59;;;;;;;9.60;5.60;;;;;;;12.43;100.00;101821.59;105923;1251;72462;-50
2023/10/05 01:14:27;;;;;;;12.60;5.90;;;;;;;12.41;100.00;101811.90;105919;1255;60470;-49
2023/10/05 01:16:55;;;;;;;16.10;7.40;;;;;;;12.38;100.00;101803.61;105681;1251;60470;-50
2023/10/05 01:19:22;;;;;;;21.10;6.70;;;;;;;12.34;100.00;101791.34;105686;1253;72687;-48
2023/10/05 01:21:51;;;;;;;9.40;6.00;;;;;;;12.31;100.00;101778.73;105910;1256;64657;-48
2023/10/05 01:24:20;;;;;;;15.90;6.50;;;;;;;12.29;100.00;101773.52;105921;1252;72605;-49
2023/10/05 01:26:47;;;;;;;17.70;5.90;;;;;;;12.28;100.00;101771.81;105904;1251;61821;-50
2023/10/05 01:29:16;;;;;;;17.30;5.50;;;;;;;12.29;100.00;101762.11;105914;1251;60622;-49
2023/10/05 01:31:43;;;;;;;11.70;5.40;;;;;;;12.29;100.00;101750.69;105918;1254;73814;-48
2023/10/05 01:34:11;;;;;;;14.20;5.40;;;;;;;12.27;100.00;101742.73;105905;1253;63235;-49
2023/10/05 01:36:38;;;;;;;10.30;5.80;;;;;;;12.25;100.00;101727.34;105918;1256;72650;-50
2023/10/05 01:39:09;;;;;;;15.70;6.10;;;;;;;12.23;100.00;101715.74;105839;1253;61804;-49
2023/10/05 01:41:37;;;;;;;16.50;5.70;;;;;;;12.20;100.00;101702.27;105913;1253;60505;-49
2023/10/05 01:44:05;;;;;;;11.30;5.80;;;;;;;12.16;100.00;101680.14;106009;1255;72824;-50
2023/10/05 01:46:33;;;;;;;8.70;5.30;;;;;;;12.12;100.00;101664.76;105957;1256;63143;-50
2023/10/05 01:49:01;;;;;;;14.60;5.90;;;;;;;12.10;100.00;101653.89;105870;1253;71684;-49
2023/10/05 01:51:28;;;;;;;14.40;5.50;;;;;;;12.07;100.00;101644.55;105953;1256;61748;-52
2023/10/05 01:54:15;;;;;;;12.30;5.00;;;;;;;12.06;100.00;101640.23;105928;1252;60437;-50
2023/10/05 01:56:44;;;;;;;14.30;5.40;;;;;;;12.04;100.00;101628.65;105711;1257;73864;-50
2023/10/05 01:59:13;;;;;;;16.30;5.10;;;;;;;12.01;100.00;101623.13;105811;1257;64750;-51
2023/10/05 02:01:40;;;;;;;18.60;5.20;;;;;;;11.97;100.00;101623.11;105966;1251;72707;-49
2023/10/05 02:04:08;;;;;;;13.20;5.90;;;;;;;11.93;100.00;101624.36;105682;1251;61944;-50
2023/10/05 02:06:42;;;;;;;8.40;4.80;;;;;;;11.87;100.00;101625.43;105744;1253;60649;-51
2023/10/05 02:09:10;;;;;;;26.40;6.20;;;;;;;11.81;100.00;101624.59;105723;1254;73762;-49
2023/10/05 02:11:40;;;;;;;9.30;5.20;;;;;;;11.73;100.00;101623.41;105689;1256;64371;-51
2023/10/05 02:14:12;;;;;;;17.90;4.70;;;;;;;11.68;100.00;101619.81;105872;1256;71322;-50
2023/10/05 02:16:40;;;;;;;17.30;5.10;;;;;;;11.61;100.00;101609.98;105937;1253;61955;-50
2023/10/05 02:19:08;;;;;;;11.10;5.00;;;;;;;11.53;100.00;101608.65;105929;1252;60507;-49
2023/10/05 02:21:36;;;;;;;16.20;5.50;;;;;;;11.46;100.00;101610.73;105955;1252;73696;-49
2023/10/05 02:24:16;;;;;;;11.80;4.80;;;;;;;11.38;100.00;101622.52;105999;1256;64527;-49
2023/10/05 02:29:29;;;;;;;17.90;4.90;;;;;;;11.13;100.00;101649.35;105888;1252;61778;-49
2023/10/05 02:34:41;;;;;;;10.40;5.10;;;;;;;10.90;100.00;101699.29;105909;1255;73689;-49
2023/10/05 02:37:11;;;;;;;16.20;4.90;;;;;;;10.79;100.00;101724.49;105719;1257;64654;-50
2023/10/05 02:39:39;;;;;;;12.90;5.60;;;;;;;10.70;100.00;101756.25;105740;1254;72492;-49
2023/10/05 02:42:21;;;;;;;13.50;4.90;;;;;;;10.62;100.00;101793.18;105991;1253;60492;-52
2023/10/05 02:44:49;;;;;;;9.80;4.90;;;;;;;10.53;100.00;101838.05;105934;1253;60419;-50
2023/10/05 02:47:22;;;;;;;8.70;4.20;;;;;;;10.43;100.00;101854.90;105794;1256;73794;-50
2023/10/05 02:49:50;;;;;;;10.20;4.80;;;;;;;10.34;100.00;101883.30;105926;1254;63176;-50
2023/10/05 02:52:17;;;;;;;7.50;4.40;;;;;;;10.27;100.00;101900.88;105950;1253;72689;-50
2023/10/05 02:54:48;;;;;;;7.50;4.70;;;;;;;10.21;100.00;101912.39;105925;1256;60435;-48
2023/10/05 02:57:16;;;;;;;9.50;4.40;;;;;;;10.13;100.00;101906.65;105906;1251;60412;-50
2023/10/05 02:59:43;;;;;;;11.10;5.00;;;;;;;10.06;100.00;101909.70;105913;1253;73695;-49
2023/10/05 03:02:16;;;;;;;10.30;4.40;;;;;;;9.99;100.00;101915.70;105904;1256;64642;-49
2023/10/05 03:04:47;;;;;;;9.70;4.60;;;;;;;9.94;100.00;101918.23;105735;1253;72628;-49
2023/10/05 03:07:18;;;;;;;14.80;4.50;;;;;;;9.91;100.00;101915.45;105865;1256;61910;-48
2023/10/05 03:09:47;;;;;;;13.70;5.40;;;;;;;9.91;100.00;101918.04;105717;1253;60454;-48
2023/10/05 03:12:14;;;;;;;12.80;5.70;;;;;;;9.93;100.00;101913.92;105753;1257;73791;-49
2023/10/05 03:14:45;;;;;;;16.40;5.90;;;;;;;9.97;100.00;101901.70;105865;1256;64767;-50
2023/10/05 03:17:13;;;;;;;9.30;4.70;;;;;;;9.96;100.00;101898.42;105909;1251;72606;-51
2023/10/05 03:19:40;;;;;;;12.60;4.90;;;;;;;9.96;100.00;101898.08;105882;1252;61788;-51
2023/10/05 03:22:13;;;;;;;16.60;4.60;;;;;;;9.95;100.00;101897.03;105742;1257;60412;-49
2023/10/05 03:24:44;;;;;;;14.10;4.40;;;;;;;9.93;100.00;101899.44;105893;1255;73820;-50
2023/10/05 03:27:12;;;;;;;7.90;4.20;;;;;;;9.94;100.00;101902.37;105882;1253;63709;-51
2023/10/05 03:29:45;;;;;;;9.00;5.00;;;;;;;9.92;100.00;101909.09;105892;1253;72720;-50
2023/10/05 03:32:13;;;;;;;14.10;4.30;;;;;;;9.90;100.00;101912.00;105902;1253;62018;-47
2023/10/05 03:35:22;;;;;;;8.00;4.00;;;;;;;9.88;100.00;101912.52;105907;1253;60437;-48
2023/10/05 03:37:39;;;;;;;8.60;4.00;;;;;;;9.88;100.00;101919.92;105884;1256;73945;-49
2023/10/05 03:40:19;;;;;;;12.60;4.30;;;;;;;9.90;100.00;101927.69;105960;1253;64589;-50
2023/10/05 03:42:46;;;;;;;8.50;4.10;;;;;;;9.90;100.00;101930.11;105795;1253;72540;-49
2023/10/05 03:45:16;;;;;;;8.80;4.60;;;;;;;9.88;100.00;101924.41;105894;1256;60661;-50
2023/10/05 03:47:44;;;;;;;12.80;4.10;;;;;;;9.90;100.00;101927.01;105956;1253;60624;-49
2023/10/05 03:50:16;;;;;;;9.20;4.00;;;;;;;9.90;100.00;101934.23;105919;1252;72360;-50
2023/10/05 03:52:46;;;;;;;5.80;3.50;;;;;;;9.90;100.00;101945.63;106016;1253;63559;-48
2023/10/05 03:55:18;;;;;;;9.70;4.00;;;;;;;9.90;100.00;101949.25;105926;1254;71272;-49
2023/10/05 03:57:48;;;;;;;8.50;3.60;;;;;;;9.89;100.00;101953.21;105897;1251;60499;-50
2023/10/05 04:02:48;;;;;;;8.60;4.10;;;;;;;9.88;100.00;101955.09;105767;1251;73940;-49
2023/10/05 04:05:20;;;;;;;7.30;3.40;;;;;;;9.90;100.00;101954.60;105922;1256;64833;-49
2023/10/05 04:07:48;;;;;;;8.10;3.50;;;;;;;9.94;100.00;101955.83;105842;1253;73145;-50
2023/10/05 04:10:15;;;;;;;12.90;4.30;;;;;;;9.97;100.00;101959.66;105889;1255;60464;-50
2023/10/05 04:12:42;;;;;;;8.70;3.60;;;;;;;10.00;100.00;101960.72;105984;1256;60608;-49
2023/10/05 04:15:11;;;;;;;9.20;3.50;;;;;;;10.02;100.00;101960.39;105924;1251;73813;-49
2023/10/05 04:17:38;;;;;;;8.50;3.50;;;;;;;10.06;100.00;101965.41;105881;1251;64023;-50
2023/10/05 04:22:52;;;;;;;7.70;3.80;;;;;;;10.17;100.00;101969.98;105935;1255;60368;-49
2023/10/05 04:25:19;;;;;;;6.20;3.40;;;;;;;10.23;100.00;101975.38;105925;1253;60457;-49
2023/10/05 04:27:47;;;;;;;13.50;4.00;;;;;;;10.29;100.00;101978.88;105961;1253;73872;-49
2023/10/05 04:30:18;;;;;;;7.20;3.30;;;;;;;10.34;100.00;101973.89;105710;1252;265926;-49
2023/10/05 04:34:31;;;;;;;12.90;3.70;;;;;;;10.41;100.00;102010.90;102488;1290;600455;-50
2023/10/05 04:36:58;;;;;;;6.30;3.70;;;;;;;10.44;100.00;101973.64;105026;1269;60180;-49
2023/10/05 04:39:29;;;;;;;9.20;3.60;;;;;;;10.47;100.00;101976.41;105103;1267;60041;-49
2023/10/05 04:42:04;;;;;;;4.60;3.30;;;;;;;10.51;100.00;101977.48;105155;1269;72281;-48
2023/10/05 04:44:31;;;;;;;7.90;2.90;;;;;;;10.53;100.00;101978.19;105110;1270;64635;-49
2023/10/05 04:46:58;;;;;;;13.60;3.80;;;;;;;10.55;100.00;101971.11;104179;1269;1228893;-49
2023/10/05 04:49:27;;;;;;;11.90;3.90;;;;;;;10.55;100.00;101971.81;105928;1257;60207;-49
2023/10/05 04:51:56;;;;;;;21.70;4.40;;;;;;;10.55;100.00;101966.64;105983;1251;60406;-49
2023/10/05 04:54:28;;;;;;;15.70;4.50;;;;;;;10.56;100.00;101965.95;105939;1251;70956;-50
2023/10/05 04:57:03;;;;;;;10.50;3.50;;;;;;;10.57;100.00;101965.27;105869;1256;64598;-49
2023/10/05 05:05:21;;;;;;;11.70;4.40;;;;;;;10.58;100.00;101956.82;105751;1252;60911;-49
2023/10/05 05:07:50;;;;;;;11.90;3.80;;;;;;;10.62;100.00;101955.46;105851;1256;73132;-49
2023/10/05 05:10:20;;;;;;;9.60;4.30;;;;;;;10.67;100.00;101949.79;106001;1255;64758;-49
2023/10/05 05:12:49;;;;;;;14.50;4.90;;;;;;;10.73;100.00;101942.05;106005;1254;73285;-48
2023/10/05 05:15:16;;;;;;;22.70;4.70;;;;;;;10.79;100.00;101930.51;105933;1256;61295;-49
2023/10/05 05:17:44;;;;;;;15.10;4.30;;;;;;;10.86;100.00;101918.61;105948;1254;59877;-52
2023/10/05 05:20:15;;;;;;;14.20;4.00;;;;;;;10.93;100.00;101904.98;105777;1253;73426;-51
2023/10/05 05:22:46;;;;;;;22.60;4.90;;;;;;;11.02;100.00;101885.15;105667;1253;64588;-50
2023/10/05 05:25:15;;;;;;;12.80;4.20;;;;;;;11.11;100.00;101860.64;105992;1252;72879;-53
2023/10/05 05:27:45;;;;;;;13.40;4.60;;;;;;;11.19;100.00;101834.91;106049;1256;59974;-49
2023/10/05 05:30:24;;;;;;;4.90;3.60;;;;;;;11.28;100.00;101806.06;105954;1252;60233;-49
2023/10/05 05:32:53;;;;;;;6.30;3.60;;;;;;;11.38;100.00;101779.62;105918;1256;72998;-48
2023/10/05 05:35:20;;;;;;;11.00;3.70;;;;;;;11.50;100.00;101757.30;105948;1257;63235;-50
2023/10/05 05:37:48;;;;;;;11.70;4.10;;;;;;;11.61;100.00;101738.61;105978;1254;72854;-50
2023/10/05 05:40:17;;;;;;;7.10;3.70;;;;;;;11.72;100.00;101713.34;105967;1254;62715;-49
2023/10/05 05:42:46;;;;;;;16.90;4.20;;;;;;;11.85;100.00;101681.46;105916;1257;60475;-51
2023/10/05 05:45:16;;;;;;;12.30;3.90;;;;;;;11.97;100.00;101650.27;105907;1252;74196;-49
2023/10/05 05:47:45;;;;;;;12.40;3.60;;;;;;;12.08;100.00;101628.62;105946;1256;64596;-50
2023/10/05 05:50:22;;;;;;;15.40;3.90;;;;;;;12.20;100.00;101599.30;105904;1254;73563;-49
2023/10/05 05:52:54;;;;;;;6.00;3.20;;;;;;;12.35;100.00;101554.71;105943;1256;62621;-51
2023/10/05 05:55:22;;;;;;;12.50;3.30;;;;;;;12.49;100.00;101531.21;105924;1254;60680;-47
2023/10/05 05:57:50;;;;;;;9.40;3.70;;;;;;;12.60;100.00;101514.50;105868;1254;73058;-48
2023/10/05 06:00:18;;;;;;;5.50;3.60;;;;;;;12.71;100.00;101499.84;105897;1256;64806;-49
2023/10/05 06:02:46;;;;;;;10.80;4.30;;;;;;;12.82;100.00;101477.89;105936;1254;72254;-49
2023/10/05 06:05:14;;;;;;;8.00;3.60;;;;;;;12.91;100.00;101444.19;105860;1256;62589;-50
2023/10/05 06:07:43;;;;;;;11.60;3.90;;;;;;;13.02;100.00;101399.34;105916;1254;60414;-49
2023/10/05 06:10:14;;;;;;;8.50;4.10;;;;;;;13.13;100.00;101368.02;105904;1256;73123;-49
2023/10/05 06:12:51;;;;;;;9.80;3.60;;;;;;;13.26;100.00;101347.53;105896;1254;64919;-49
2023/10/05 06:15:18;;;;;;;6.40;3.50;;;;;;;13.37;100.00;101330.20;105885;1254;71965;-50
2023/10/05 06:17:45;;;;;;;16.30;4.10;;;;;;;13.48;100.00;101301.09;105959;1256;62746;-49
2023/10/05 06:20:15;;;;;;;9.90;3.90;;;;;;;13.59;100.00;101266.73;105938;1254;60685;-49
2023/10/05 06:22:44;;;;;;;14.90;3.10;;;;;;;13.70;100.00;101224.92;105934;1256;73080;-48
2023/10/05 06:25:18;;;;;;;11.00;3.70;;;;;;;13.79;100.00;101175.84;105884;1256;64908;-50
2023/10/05 06:27:45;;;;;;;10.10;3.60;;;;;;;13.89;100.00;101135.73;105878;1254;72478;-50
2023/10/05 06:30:12;;;;;;;8.90;3.10;;;;;;;13.99;100.00;101104.11;105882;1253;62336;-50
2023/10/05 06:32:40;;;;;;;6.00;3.40;;;;;;;14.07;100.00;101087.63;105892;1254;60420;-49
2023/10/05 06:35:11;;;;;;;10.70;4.30;;;;;;;14.14;100.00;101080.16;105937;1254;73412;-50
2023/10/05 06:37:39;;;;;;;10.00;4.50;;;;;;;14.20;100.00;101067.02;105972;1256;65682;-49
2023/10/05 06:40:10;;;;;;;14.90;4.70;;;;;;;14.28;100.00;101071.52;105930;1254;73072;-49
2023/10/05 06:42:39;;;;;;;14.40;4.20;;;;;;;14.39;100.00;101087.23;105932;1254;62010;-49
2023/10/05 06:45:11;;;;;;;9.60;3.40;;;;;;;14.49;100.00;101084.38;105854;1252;61298;-49
2023/10/05 06:47:38;;;;;;;6.80;3.30;;;;;;;14.56;100.00;101069.27;105929;1254;73018;-49
2023/10/05 06:50:09;;;;;;;6.40;3.50;;;;;;;14.59;100.00;101057.89;105889;1256;64574;-51
2023/10/05 06:52:41;;;;;;;13.90;3.40;;;;;;;14.66;100.00;101054.94;105879;1254;72506;-49
2023/10/05 06:55:14;;;;;;;11.30;3.70;;;;;;;14.76;100.00;101054.20;105911;1256;60995;-49
2023/10/05 06:57:44;;;;;;;9.60;4.20;;;;;;;14.88;100.00;101059.79;105900;1254;60824;-49
2023/10/05 07:00:16;;;;;;;8.70;4.00;;;;;;;14.98;100.00;101068.39;105965;1252;73351;-52
2023/10/05 07:02:44;;;;;;;7.60;4.10;;;;;;;15.00;100.00;101073.89;105914;1254;64637;-49
2023/10/05 07:05:12;;;;;;;5.60;3.40;;;;;;;14.93;100.00;101084.33;106053;1256;71034;-50
2023/10/05 07:07:42;;;;;;;13.80;3.70;;;;;;;14.78;100.00;101103.49;105944;1256;62818;-49
2023/10/05 07:10:13;;;;;;;9.80;3.30;;;;;;;14.67;100.00;101110.85;105871;1254;61027;-50
2023/10/05 07:12:48;;;;;;;7.60;3.30;;;;;;;14.68;100.00;101104.91;105952;1252;71719;-49
2023/10/05 07:15:18;;;;;;;7.90;3.20;;;;;;;14.74;100.00;101132.58;105898;1256;65036;-52
2023/10/05 07:17:48;;;;;;;19.00;3.10;;;;;;;14.82;100.00;101148.90;105915;1256;72074;-50
2023/10/05 07:20:16;;;;;;;5.50;3.20;;;;;;;14.90;100.00;101150.60;105910;1254;59671;-49
2023/10/05 07:22:45;;;;;;;4.30;2.70;;;;;;;14.98;100.00;101181.52;105902;1257;59834;-50
2023/10/05 07:25:14;;;;;;;6.20;2.70;;;;;;;15.05;100.00;101187.42;105886;1256;73966;-49
2023/10/05 07:27:44;;;;;;;6.10;2.80;;;;;;;15.11;100.00;101194.75;105801;1253;65734;-47
2023/10/05 07:30:13;;;;;;;24.60;3.10;;;;;;;15.15;100.00;101218.27;105872;1252;72891;-50
2023/10/05 07:32:40;;;;;;;5.40;2.70;;;;;;;15.18;100.00;101252.61;105682;1259;60319;-49
2023/10/05 07:35:09;;;;;;;11.30;2.80;;;;;;;15.24;100.00;101276.80;105929;1253;60152;-50
2023/10/05 07:37:36;;;;;;;9.60;2.50;;;;;;;15.28;100.00;101313.05;105920;1254;71442;-50
2023/10/05 07:40:04;;;;;;;9.30;3.00;;;;;;;15.32;100.00;101332.11;105955;1256;65237;-52
2023/10/05 07:42:31;;;;;;;10.20;2.50;;;;;;;15.36;100.00;101354.43;105920;1253;73741;-50
2023/10/05 07:44:59;;;;;;;6.00;2.60;;;;;;;15.40;100.00;101365.47;105925;1256;61258;-49
2023/10/05 07:47:26;;;;;;;6.40;2.60;;;;;;;15.47;100.00;101380.10;105964;1254;61369;-51
2023/10/05 07:49:55;;;;;;;8.70;3.20;;;;;;;15.54;100.00;101395.91;105785;1256;72717;-48
2023/10/05 07:52:22;;;;;;;8.40;2.90;;;;;;;15.61;100.00;101421.34;105703;1257;65119;-50
2023/10/05 07:54:51;;;;;;;10.10;3.00;;;;;;;15.66;100.00;101427.13;105844;1253;71826;-51
2023/10/05 07:57:18;;;;;;;2.70;2.20;;;;;;;15.73;100.00;101426.42;105850;1256;59546;-51
2023/10/05 07:59:46;;;;;;;13.00;3.10;;;;;;;15.80;100.00;101427.83;106032;1253;60358;-49
2023/10/05 08:02:14;;;;;;;23.90;3.80;;;;;;;15.87;100.00;101432.55;105896;1254;72798;-50
2023/10/05 08:04:41;;;;;;;18.20;3.50;;;;;;;15.97;100.00;101434.73;105754;1254;62968;-48
2023/10/05 08:07:08;;;;;;;10.90;3.30;;;;;;;16.10;100.00;101431.61;105929;1254;72989;-49
2023/10/05 08:09:35;;;;;;;19.20;3.30;;;;;;;16.27;100.00;101425.27;105899;1256;60487;-50
2023/10/05 08:12:03;;;;;;;11.60;3.20;;;;;;;16.41;100.00;101425.41;105719;1252;60484;-49
2023/10/05 08:14:30;;;;;;;5.80;2.80;;;;;;;16.57;100.00;101425.50;105910;1253;73798;-49
2023/10/05 08:16:59;;;;;;;6.70;3.30;;;;;;;16.65;100.00;101435.36;105913;1256;65250;-49
2023/10/05 08:19:26;;;;;;;26.70;3.90;;;;;;;16.72;100.00;101438.30;105921;1254;71482;-49
2023/10/05 08:21:55;;;;;;;17.80;3.50;;;;;;;16.74;100.00;101439.48;105914;1256;61180;-49
2023/10/05 08:24:23;;;;;;;39.40;4.70;;;;;;;16.79;100.00;101444.20;105941;1254;60241;-49
2023/10/05 08:26:52;;;;;;;34.90;5.50;;;;;;;16.90;100.00;101439.88;105909;1254;72037;-49
2023/10/05 08:29:22;;;;;;;49.90;6.40;;;;;;;16.91;100.00;101445.42;106024;1256;64792;-48
2023/10/05 08:31:53;;;;;;;20.70;4.20;;;;;;;16.97;100.00;101442.83;105874;1254;73260;-48
2023/10/05 08:34:22;;;;;;;43.00;6.00;;;;;;;17.08;100.00;101445.68;105911;1256;60773;-49
2023/10/05 08:36:53;;;;;;;48.70;5.10;;;;;;;17.17;100.00;101444.52;105928;1252;60079;-50
2023/10/05 08:39:25;;;;;;;69.50;7.40;;;;;;;17.20;100.00;101448.62;105948;1252;73021;-49
2023/10/05 08:41:57;;;;;;;64.60;7.20;;;;;;;17.19;100.00;101462.59;105948;1256;65019;-48
2023/10/05 08:44:27;;;;;;;71.30;5.80;;;;;;;17.16;100.00;101465.30;105916;1253;71520;-48
2023/10/05 08:47:00;;;;;;;13.50;3.50;;;;;;;17.10;100.00;101476.98;105923;1256;61610;-48
2023/10/05 08:49:28;;;;;;;16.80;3.10;;;;;;;17.26;100.00;101458.22;105939;1253;60944;-50
2023/10/05 08:51:56;;;;;;;13.60;2.80;;;;;;;17.34;96.63;101449.59;105903;1252;73787;-50
2023/10/05 08:54:33;;;;;;;124.70;9.10;;;;;;;17.29;91.30;101461.41;105832;1257;64768;-50
2023/10/05 08:57:09;;;;;;;30.70;4.00;;;;;;;17.26;89.96;101474.60;105903;1254;72095;-51
2023/10/05 08:59:37;;;;;;;10.10;2.70;;;;;;;17.27;86.97;101483.28;105897;1256;60431;-48
2023/10/05 09:02:07;;;;;;;7.40;2.90;;;;;;;17.35;91.86;101497.89;105944;1253;60470;-50
2023/10/05 09:04:44;;;;;;;11.70;3.10;;;;;;;17.44;87.16;101476.69;105924;1256;74078;-49
2023/10/05 09:07:38;;;;;;;7.70;2.10;;;;;;;17.50;90.24;101486.95;105908;1256;64960;-50
2023/10/05 09:10:08;;;;;;;12.00;2.00;;;;;;;17.57;83.99;101468.23;105945;1253;73384;-50
2023/10/05 09:12:40;;;;;;;9.10;2.40;;;;;;;17.60;83.47;101480.19;105922;1254;60507;-50
2023/10/05 09:15:15;;;;;;;9.80;2.30;;;;;;;17.66;81.41;101480.53;105919;1257;60521;-50
2023/10/05 09:20:42;;;;;;;7.00;2.40;;;;;;;17.77;82.00;101478.59;105917;1257;64848;-49
2023/10/05 09:23:20;;;;;;;5.80;2.40;;;;;;;17.85;84.58;101495.97;105871;1252;73468;-50
2023/10/05 09:25:47;;;;;;;13.20;2.60;;;;;;;17.97;83.38;101479.36;105894;1254;60427;-49
2023/10/05 09:28:33;;;;;;;7.90;2.20;;;;;;;18.04;81.53;101473.55;105870;1254;60472;-51
2023/10/05 09:31:00;;;;;;;7.50;2.30;;;;;;;17.99;77.75;101458.16;105895;1256;74048;-49
2023/10/05 09:33:33;;;;;;;13.40;2.30;;;;;;;17.90;76.47;101463.52;105911;1256;65804;-50
2023/10/05 09:36:16;;;;;;;19.50;2.90;;;;;;;17.72;75.48;101466.20;105908;1256;73592;-50
2023/10/05 09:38:46;;;;;;;5.60;1.90;;;;;;;17.60;75.89;101481.58;105911;1254;61150;-50
2023/10/05 09:41:25;;;;;;;9.10;2.60;;;;;;;17.69;82.13;101522.34;105905;1254;60649;-51
2023/10/05 09:44:05;;;;;;;8.80;2.10;;;;;;;17.99;85.21;101495.38;105891;1254;74657;-50
2023/10/05 09:46:33;;;;;;;16.80;2.10;;;;;;;18.16;79.08;101463.38;105778;1258;64841;-50
2023/10/05 09:49:02;;;;;;;20.00;2.20;;;;;;;18.31;77.52;101457.63;105912;1253;72916;-51
2023/10/05 09:51:29;;;;;;;12.40;2.30;;;;;;;18.33;74.01;101425.77;105710;1254;60529;-51
2023/10/05 09:53:56;;;;;;;11.70;2.10;;;;;;;18.25;76.22;101478.63;105735;1252;60457;-49
2023/10/05 09:56:25;;;;;;;17.40;2.50;;;;;;;18.24;73.50;101440.39;105868;1253;75159;-51
2023/10/05 09:59:15;;;;;;;5.90;2.20;;;;;;;18.14;73.64;101466.05;105859;1256;64601;-50
2023/10/05 10:01:45;;;;;;;13.50;3.10;;;;;;;18.19;74.20;101480.57;105931;1254;73078;-51
2023/10/05 10:04:18;;;;;;;4.20;2.10;;;;;;;18.19;70.95;101413.48;105892;1254;60712;-49
2023/10/05 10:06:53;;;;;;;7.50;2.30;;;;;;;18.03;70.08;101423.29;105854;1254;61212;-51
2023/10/05 10:09:26;;;;;;;6.40;2.00;;;;;;;18.00;69.54;101425.31;105691;1259;73337;-48
2023/10/05 10:11:59;;;;;;;40.40;3.50;;;;;;;17.93;71.59;101481.03;105949;1257;65761;-49
2023/10/05 10:14:27;;;;;;;31.40;3.90;;;;;;;18.04;71.41;101458.56;105906;1253;71150;-50
2023/10/05 10:17:00;;;;;;;32.00;2.80;;;;;;;18.05;70.96;101450.30;105695;1257;60987;-50
2023/10/05 10:19:28;;;;;;;42.40;4.60;;;;;;;18.04;71.14;101457.68;105962;1253;60450;-51
2023/10/05 10:22:07;;;;;;;36.00;2.90;;;;;;;18.04;70.76;101451.73;105921;1252;74365;-51
2023/10/05 10:24:34;;;;;;;12.60;2.10;;;;;;;18.10;71.93;101470.41;105906;1256;64613;-52
2023/10/05 10:27:08;;;;;;;27.70;2.50;;;;;;;18.19;69.79;101413.14;105686;1254;73435;-49
2023/10/05 10:29:47;;;;;;;7.80;2.40;;;;;;;18.24;69.36;101414.02;105765;1257;60660;-49
2023/10/05 10:32:19;;;;;;;10.60;2.50;;;;;;;18.32;68.92;101407.80;105944;1254;60846;-51
2023/10/05 10:34:50;;;;;;;56.70;3.90;;;;;;;18.34;68.11;101397.78;105892;1252;73997;-51
2023/10/05 10:37:44;;;;;;;43.90;4.10;;;;;;;18.36;67.13;101378.66;105928;1256;63954;-50
2023/10/05 10:42:54;;;;;;;14.40;2.80;;;;;;;18.26;69.01;101442.44;105942;1256;61516;-51
2023/10/05 10:45:28;;;;;;;23.80;2.90;;;;;;;18.36;65.85;101334.43;105935;1254;61533;-50
2023/10/05 10:47:56;;;;;;;14.70;2.80;;;;;;;18.39;66.06;101359.34;105948;1256;73863;-50
2023/10/05 10:50:29;;;;;;;17.60;2.10;;;;;;;18.50;65.48;101341.10;105904;1252;64453;-51
2023/10/05 10:52:56;;;;;;;12.90;2.60;;;;;;;18.46;64.29;101311.20;105903;1254;72521;-50
2023/10/05 10:55:31;;;;;;;10.10;2.90;;;;;;;18.34;64.79;101360.40;105855;1256;60657;-50
2023/10/05 10:58:08;;;;;;;4.40;2.40;;;;;;;18.37;63.02;101273.60;105908;1256;60400;-51
2023/10/05 11:03:15;;;;;;;9.60;3.30;;;;;;;18.54;63.09;101322.23;105930;1256;65650;-51
2023/10/05 11:05:54;;;;;;;19.30;3.10;;;;;;;18.52;62.11;101280.36;105898;1256;72609;-50
2023/10/05 11:08:21;;;;;;;12.60;3.30;;;;;;;18.39;63.08;101361.05;105878;1256;60348;-53
2023/10/05 11:10:55;;;;;;;17.30;3.00;;;;;;;18.49;63.95;101412.59;105924;1254;60634;-52
2023/10/05 11:13:24;;;;;;;7.20;2.80;;;;;;;18.64;62.39;101310.65;105917;1253;73545;-51
2023/10/05 11:15:59;;;;;;;23.50;3.10;;;;;;;18.70;62.28;101314.65;105910;1256;64701;-50
2023/10/05 11:18:34;;;;;;;18.20;3.20;;;;;;;18.67;61.83;101297.44;105893;1256;72647;-50
2023/10/05 11:21:16;;;;;;;13.80;2.70;;;;;;;18.63;61.16;101260.21;105777;1259;61376;-53
2023/10/05 11:23:47;;;;;;;4.00;2.60;;;;;;;18.49;61.09;101284.33;105910;1253;60485;-50
2023/10/05 11:26:17;;;;;;;10.30;3.00;;;;;;;18.36;61.21;101302.64;105906;1256;73723;-50
2023/10/05 11:28:49;;;;;;;13.80;2.80;;;;;;;18.33;61.10;101305.38;105988;1256;63841;-49
2023/10/05 11:31:33;;;;;;;5.80;2.50;;;;;;;18.40;62.08;101366.80;105880;1254;73683;-49
2023/10/05 11:34:27;;;;;;;11.00;2.80;;;;;;;18.60;60.65;101257.35;105847;1253;60549;-50
2023/10/05 11:37:18;;;;;;;10.30;3.10;;;;;;;18.69;59.09;101148.95;105796;1253;60501;-51
2023/10/05 11:39:58;;;;;;;6.30;2.80;;;;;;;18.69;59.33;101178.16;105961;1257;72929;-49
2023/10/05 11:42:35;;;;;;;5.10;2.50;;;;;;;18.78;59.77;101225.17;105940;1256;65802;-52
2023/10/05 11:45:12;;;;;;;7.40;3.10;;;;;;;18.84;58.34;101108.67;105991;1254;72310;-50
2023/10/05 11:47:41;;;;;;;5.70;2.40;;;;;;;18.84;57.61;101057.12;105916;1256;60807;-50
2023/10/05 11:50:23;;;;;;;4.30;2.80;;;;;;;18.74;57.78;101097.19;105957;1254;61748;-50
2023/10/05 11:52:54;;;;;;;5.70;2.50;;;;;;;18.66;57.88;101116.06;105929;1254;74911;-51
2023/10/05 11:55:21;;;;;;;10.00;2.80;;;;;;;18.60;57.71;101121.58;105896;1257;64167;-50
2023/10/05 11:57:49;;;;;;;11.40;2.90;;;;;;;18.47;57.72;101127.85;105890;1254;74089;-50
2023/10/05 12:00:16;;;;;;;10.50;3.10;;;;;;;18.50;57.96;101157.95;105921;1256;60767;-51